LLHZ

Details ICAO LLHZ
Name Herzelia
Region Israel
Timezone Asia/Jerusalem (UTC+3.0)
Plans Departing 6
Arriving 7
Stats Elevation 121 ft / 37 m (AMSL)
Location 32.180553° 34.834724°
Runways 1
Magnetic Variation 4.741° E
Sunrise 2018-05-22 02:40:26 UTC / 2018-05-22 05:40:26 Local
Sunset 2018-05-22 16:37:04 UTC / 2018-05-22 19:37:04 Local
Advertisement - Login to hide

Runways

ID Width Length Bearing (true) Bearing (mag) Surface Threshold Offset Overrun Length
11 59 ft / 18 m 2,965 ft / 904 m 110.00° 105.26° Asphalt 229 ft / 70 m 66 ft / 20 m
29 59 ft / 18 m 2,965 ft / 904 m 290.00° 285.26° Asphalt 229 ft / 70 m 66 ft / 20 m

Map

Weather


0- 5 10 15 20 25 30 35+ Temperature / ° C

Clouds and Precipitation
Forecast for 2018-05-22 12:00 UTC. Updated 5 hours ago

Ground ~20,000 ft ~40,000 ft Winds

METAR

Not found

TAF

TAF LLHZ 221117Z 2212/2312 32010KT CAVOK BECMG 2216/2218 VRB03KT BECMG 2306/2308 25010KT TX35/2212Z TN23/2304Z
Warning: Do not use this data for real-world aviation or navigation. No guarantee of current accuracy is given.